sensor_id;sensor_type;location;lat;lon;timestamp;pressure;altitude;pressure_sealevel;temperature
61977;BMP280;45905;50.570;10.428;2022-09-09T00:00:56;97520.50;;;14.63
61977;BMP280;45905;50.570;10.428;2022-09-09T00:03:34;97523.84;;;14.64
61977;BMP280;45905;50.570;10.428;2022-09-09T00:11:43;97522.25;;;14.63
61977;BMP280;45905;50.570;10.428;2022-09-09T00:14:37;97525.03;;;14.61
61977;BMP280;45905;50.570;10.428;2022-09-09T00:17:56;97522.41;;;14.55
61977;BMP280;45905;50.570;10.428;2022-09-09T00:23:33;97512.63;;;14.52
61977;BMP280;45905;50.570;10.428;2022-09-09T00:26:39;97521.59;;;14.48
61977;BMP280;45905;50.570;10.428;2022-09-09T00:29:14;97511.78;;;14.45
61977;BMP280;45905;50.570;10.428;2022-09-09T00:31:45;97519.06;;;14.48
61977;BMP280;45905;50.570;10.428;2022-09-09T00:34:23;97509.81;;;14.47
61977;BMP280;45905;50.570;10.428;2022-09-09T00:36:53;97512.38;;;14.47
61977;BMP280;45905;50.570;10.428;2022-09-09T00:39:38;97505.34;;;14.49
61977;BMP280;45905;50.570;10.428;2022-09-09T00:42:17;97511.41;;;14.48
61977;BMP280;45905;50.570;10.428;2022-09-09T00:47:50;97513.34;;;14.46
61977;BMP280;45905;50.570;10.428;2022-09-09T00:50:59;97505.50;;;14.41
61977;BMP280;45905;50.570;10.428;2022-09-09T00:56:15;97509.00;;;14.40
61977;BMP280;45905;50.570;10.428;2022-09-09T00:59:02;97523.16;;;14.43
61977;BMP280;45905;50.570;10.428;2022-09-09T01:01:31;97515.31;;;14.44
61977;BMP280;45905;50.570;10.428;2022-09-09T01:03:59;97508.66;;;14.43
61977;BMP280;45905;50.570;10.428;2022-09-09T01:06:31;97510.59;;;14.41
61977;BMP280;45905;50.570;10.428;2022-09-09T01:12:23;97504.53;;;14.42
61977;BMP280;45905;50.570;10.428;2022-09-09T01:15:15;97509.00;;;14.40
61977;BMP280;45905;50.570;10.428;2022-09-09T01:18:03;97511.56;;;14.40
61977;BMP280;45905;50.570;10.428;2022-09-09T01:26:42;97502.16;;;14.41
61977;BMP280;45905;50.570;10.428;2022-09-09T01:29:24;97508.38;;;14.32
61977;BMP280;45905;50.570;10.428;2022-09-09T01:36:04;97508.38;;;14.05
61977;BMP280;45905;50.570;10.428;2022-09-09T01:38:40;97518.94;;;14.02
61977;BMP280;45905;50.570;10.428;2022-09-09T01:41:07;97515.84;;;14.07
61977;BMP280;45905;50.570;10.428;2022-09-09T01:43:45;97516.63;;;14.07
61977;BMP280;45905;50.570;10.428;2022-09-09T01:46:13;97516.25;;;14.10
61977;BMP280;45905;50.570;10.428;2022-09-09T01:48:42;97512.72;;;14.11
61977;BMP280;45905;50.570;10.428;2022-09-09T01:51:10;97502.53;;;14.11
61977;BMP280;45905;50.570;10.428;2022-09-09T01:53:41;97506.66;;;14.12
61977;BMP280;45905;50.570;10.428;2022-09-09T01:56:43;97506.06;;;14.10
61977;BMP280;45905;50.570;10.428;2022-09-09T02:02:26;97522.19;;;14.17
61977;BMP280;45905;50.570;10.428;2022-09-09T02:05:37;97515.91;;;14.19
61977;BMP280;45905;50.570;10.428;2022-09-09T02:08:21;97521.44;;;14.23
61977;BMP280;45905;50.570;10.428;2022-09-09T02:11:06;97533.22;;;14.24
61977;BMP280;45905;50.570;10.428;2022-09-09T02:13:48;97529.09;;;14.23
61977;BMP280;45905;50.570;10.428;2022-09-09T02:16:37;97516.53;;;14.21
61977;BMP280;45905;50.570;10.428;2022-09-09T02:19:25;97514.78;;;14.22
61977;BMP280;45905;50.570;10.428;2022-09-09T02:22:01;97514.78;;;14.22
61977;BMP280;45905;50.570;10.428;2022-09-09T02:24:36;97504.59;;;14.22
61977;BMP280;45905;50.570;10.428;2022-09-09T02:27:21;97512.81;;;14.24
61977;BMP280;45905;50.570;10.428;2022-09-09T02:29:51;97511.84;;;14.25
61977;BMP280;45905;50.570;10.428;2022-09-09T02:32:35;97515.78;;;14.27
61977;BMP280;45905;50.570;10.428;2022-09-09T02:35:21;97513.22;;;14.27
61977;BMP280;45905;50.570;10.428;2022-09-09T02:37:53;97510.69;;;14.27
61977;BMP280;45905;50.570;10.428;2022-09-09T02:40:22;97506.66;;;14.12
61977;BMP280;45905;50.570;10.428;2022-09-09T02:42:57;97506.03;;;14.04
61977;BMP280;45905;50.570;10.428;2022-09-09T02:45:33;97497.91;;;13.94
61977;BMP280;45905;50.570;10.428;2022-09-09T02:48:36;97493.00;;;13.93
61977;BMP280;45905;50.570;10.428;2022-09-09T02:51:25;97493.84;;;13.99
61977;BMP280;45905;50.570;10.428;2022-09-09T02:54:36;97501.28;;;14.01
61977;BMP280;45905;50.570;10.428;2022-09-09T02:57:26;97496.53;;;13.92
61977;BMP280;45905;50.570;10.428;2022-09-09T02:59:58;97492.97;;;13.86
61977;BMP280;45905;50.570;10.428;2022-09-09T03:02:26;97500.41;;;13.88
61977;BMP280;45905;50.570;10.428;2022-09-09T03:04:59;97493.59;;;13.94
61977;BMP280;45905;50.570;10.428;2022-09-09T03:07:26;97487.53;;;13.95
61977;BMP280;45905;50.570;10.428;2022-09-09T03:09:54;97503.63;;;13.96
61977;BMP280;45905;50.570;10.428;2022-09-09T03:12:25;97509.84;;;13.93
61977;BMP280;45905;50.570;10.428;2022-09-09T03:14:52;97511.44;;;13.94
61977;BMP280;45905;50.570;10.428;2022-09-09T03:17:19;97508.69;;;13.96
61977;BMP280;45905;50.570;10.428;2022-09-09T03:19:51;97509.50;;;13.96
61977;BMP280;45905;50.570;10.428;2022-09-09T03:22:21;97514.78;;;13.95
61977;BMP280;45905;50.570;10.428;2022-09-09T03:24:49;97512.41;;;13.93
61977;BMP280;45905;50.570;10.428;2022-09-09T03:27:16;97510.47;;;13.95
61977;BMP280;45905;50.570;10.428;2022-09-09T03:29:45;97503.63;;;13.96
61977;BMP280;45905;50.570;10.428;2022-09-09T03:32:19;97519.69;;;13.96
61977;BMP280;45905;50.570;10.428;2022-09-09T03:34:49;97510.28;;;13.97
61977;BMP280;45905;50.570;10.428;2022-09-09T03:37:17;97507.56;;;13.98
61977;BMP280;45905;50.570;10.428;2022-09-09T03:39:45;97508.34;;;13.99
61977;BMP280;45905;50.570;10.428;2022-09-09T03:45:28;97503.00;;;13.94
61977;BMP280;45905;50.570;10.428;2022-09-09T03:47:55;97506.13;;;13.90
61977;BMP280;45905;50.570;10.428;2022-09-09T03:50:24;97503.94;;;13.87
61977;BMP280;45905;50.570;10.428;2022-09-09T03:52:51;97503.75;;;13.88
61977;BMP280;45905;50.570;10.428;2022-09-09T03:55:21;97491.81;;;13.89
61977;BMP280;45905;50.570;10.428;2022-09-09T03:57:48;97489.63;;;13.86
61977;BMP280;45905;50.570;10.428;2022-09-09T04:00:17;97484.09;;;13.82
61977;BMP280;45905;50.570;10.428;2022-09-09T04:02:50;97497.00;;;13.81
61977;BMP280;45905;50.570;10.428;2022-09-09T04:05:20;97502.28;;;13.79
61977;BMP280;45905;50.570;10.428;2022-09-09T04:07:48;97497.53;;;13.76
61977;BMP280;45905;50.570;10.428;2022-09-09T04:10:15;97505.19;;;13.76
61977;BMP280;45905;50.570;10.428;2022-09-09T04:12:43;97505.00;;;13.78
61977;BMP280;45905;50.570;10.428;2022-09-09T04:15:15;97505.97;;;13.77
61977;BMP280;45905;50.570;10.428;2022-09-09T04:17:43;97508.50;;;13.77
61977;BMP280;45905;50.570;10.428;2022-09-09T04:20:10;97501.84;;;13.76
61977;BMP280;45905;50.570;10.428;2022-09-09T04:22:38;97509.25;;;13.71
61977;BMP280;45905;50.570;10.428;2022-09-09T04:25:08;97514.88;;;13.67
61977;BMP280;45905;50.570;10.428;2022-09-09T04:27:35;97502.53;;;13.64
61977;BMP280;45905;50.570;10.428;2022-09-09T04:30:03;97501.75;;;13.63
61977;BMP280;45905;50.570;10.428;2022-09-09T04:32:33;97504.47;;;13.62
61977;BMP280;45905;50.570;10.428;2022-09-09T04:35:00;97504.66;;;13.60
61977;BMP280;45905;50.570;10.428;2022-09-09T04:37:28;97499.75;;;13.59
61977;BMP280;45905;50.570;10.428;2022-09-09T04:39:55;97498.72;;;13.54
61977;BMP280;45905;50.570;10.428;2022-09-09T04:42:22;97507.69;;;13.50
61977;BMP280;45905;50.570;10.428;2022-09-09T04:44:50;97510.53;;;13.40
61977;BMP280;45905;50.570;10.428;2022-09-09T04:47:17;97513.28;;;13.39
61977;BMP280;45905;50.570;10.428;2022-09-09T04:49:44;97519.31;;;13.38
61977;BMP280;45905;50.570;10.428;2022-09-09T04:52:12;97514.78;;;13.34
61977;BMP280;45905;50.570;10.428;2022-09-09T04:54:39;97501.88;;;13.35
61977;BMP280;45905;50.570;10.428;2022-09-09T04:57:07;97507.94;;;13.34
61977;BMP280;45905;50.570;10.428;2022-09-09T04:59:35;97507.31;;;13.32
61977;BMP280;45905;50.570;10.428;2022-09-09T05:02:02;97511.25;;;13.35
61977;BMP280;45905;50.570;10.428;2022-09-09T05:04:31;97514.25;;;13.38
61977;BMP280;45905;50.570;10.428;2022-09-09T05:06:58;97510.72;;;13.39
61977;BMP280;45905;50.570;10.428;2022-09-09T05:09:26;97521.09;;;13.37
61977;BMP280;45905;50.570;10.428;2022-09-09T05:11:54;97512.47;;;13.38
61977;BMP280;45905;50.570;10.428;2022-09-09T05:14:29;97504.66;;;13.40
61977;BMP280;45905;50.570;10.428;2022-09-09T05:16:59;97501.13;;;13.41
61977;BMP280;45905;50.570;10.428;2022-09-09T05:19:27;97499.56;;;13.40
61977;BMP280;45905;50.570;10.428;2022-09-09T05:21:54;97493.69;;;13.39
61977;BMP280;45905;50.570;10.428;2022-09-09T05:24:28;97496.44;;;13.38
61977;BMP280;45905;50.570;10.428;2022-09-09T05:26:57;97499.16;;;13.36
61977;BMP280;45905;50.570;10.428;2022-09-09T05:29:26;97496.78;;;13.35
61977;BMP280;45905;50.570;10.428;2022-09-09T05:31:55;97491.53;;;13.36
61977;BMP280;45905;50.570;10.428;2022-09-09T05:34:23;97496.44;;;13.38
61977;BMP280;45905;50.570;10.428;2022-09-09T05:36:50;97502.31;;;13.38
61977;BMP280;45905;50.570;10.428;2022-09-09T05:39:20;97502.66;;;13.35
61977;BMP280;45905;50.570;10.428;2022-09-09T05:41:48;97509.16;;;13.38
61977;BMP280;45905;50.570;10.428;2022-09-09T05:44:15;97504.47;;;13.41
61977;BMP280;45905;50.570;10.428;2022-09-09T05:46:43;97494.13;;;13.43
61977;BMP280;45905;50.570;10.428;2022-09-09T05:49:12;97498.84;;;13.46
61977;BMP280;45905;50.570;10.428;2022-09-09T05:51:40;97504.56;;;13.48
61977;BMP280;45905;50.570;10.428;2022-09-09T05:54:12;97516.88;;;13.51
61977;BMP280;45905;50.570;10.428;2022-09-09T05:56:46;97521.44;;;13.55
61977;BMP280;45905;50.570;10.428;2022-09-09T05:59:17;97530.66;;;13.56
61977;BMP280;45905;50.570;10.428;2022-09-09T06:01:45;97540.06;;;13.55
61977;BMP280;45905;50.570;10.428;2022-09-09T06:04:20;97531.44;;;13.56
61977;BMP280;45905;50.570;10.428;2022-09-09T06:06:51;97522.81;;;13.57
61977;BMP280;45905;50.570;10.428;2022-09-09T06:09:20;97536.78;;;13.61
61977;BMP280;45905;50.570;10.428;2022-09-09T06:11:48;97541.31;;;13.66
61977;BMP280;45905;50.570;10.428;2022-09-09T06:14:16;97541.38;;;13.72
61977;BMP280;45905;50.570;10.428;2022-09-09T06:16:47;97533.19;;;13.76
61977;BMP280;45905;50.570;10.428;2022-09-09T06:19:18;97543.63;;;13.81
61977;BMP280;45905;50.570;10.428;2022-09-09T06:21:47;97533.69;;;13.86
61977;BMP280;45905;50.570;10.428;2022-09-09T06:24:16;97535.50;;;13.92
61977;BMP280;45905;50.570;10.428;2022-09-09T06:26:44;97520.03;;;13.93
61977;BMP280;45905;50.570;10.428;2022-09-09T06:29:17;97515.56;;;13.95
61977;BMP280;45905;50.570;10.428;2022-09-09T06:31:45;97534.59;;;13.99
61977;BMP280;45905;50.570;10.428;2022-09-09T06:34:15;97537.38;;;14.04
61977;BMP280;45905;50.570;10.428;2022-09-09T06:36:46;97552.28;;;14.07
61977;BMP280;45905;50.570;10.428;2022-09-09T06:39:13;97555.44;;;14.09
61977;BMP280;45905;50.570;10.428;2022-09-09T06:41:42;97552.69;;;14.11
61977;BMP280;45905;50.570;10.428;2022-09-09T06:44:28;97550.75;;;14.12
61977;BMP280;45905;50.570;10.428;2022-09-09T06:47:03;97550.78;;;14.19
61977;BMP280;45905;50.570;10.428;2022-09-09T06:49:31;97551.66;;;14.26
61977;BMP280;45905;50.570;10.428;2022-09-09T06:51:59;97555.19;;;14.31
61977;BMP280;45905;50.570;10.428;2022-09-09T06:54:28;97551.50;;;14.33
61977;BMP280;45905;50.570;10.428;2022-09-09T06:56:55;97550.13;;;14.37
61977;BMP280;45905;50.570;10.428;2022-09-09T06:59:24;97553.91;;;14.41
61977;BMP280;45905;50.570;10.428;2022-09-09T07:01:53;97553.31;;;14.46
61977;BMP280;45905;50.570;10.428;2022-09-09T07:04:23;97561.22;;;14.50
61977;BMP280;45905;50.570;10.428;2022-09-09T07:06:50;97556.50;;;14.54
61977;BMP280;45905;50.570;10.428;2022-09-09T07:09:24;97555.78;;;14.60
61977;BMP280;45905;50.570;10.428;2022-09-09T07:11:53;97550.91;;;14.65
61977;BMP280;45905;50.570;10.428;2022-09-09T07:14:22;97544.28;;;14.70
61977;BMP280;45905;50.570;10.428;2022-09-09T07:16:59;97542.53;;;14.77
61977;BMP280;45905;50.570;10.428;2022-09-09T07:19:32;97544.16;;;14.84
61977;BMP280;45905;50.570;10.428;2022-09-09T07:22:03;97541.69;;;14.97
61977;BMP280;45905;50.570;10.428;2022-09-09T07:24:32;97530.91;;;15.07
61977;BMP280;45905;50.570;10.428;2022-09-09T07:26:59;97539.00;;;15.17
61977;BMP280;45905;50.570;10.428;2022-09-09T07:29:26;97538.84;;;15.25
61977;BMP280;45905;50.570;10.428;2022-09-09T07:31:53;97536.09;;;15.33
61977;BMP280;45905;50.570;10.428;2022-09-09T07:34:26;97538.47;;;15.41
61977;BMP280;45905;50.570;10.428;2022-09-09T07:36:53;97544.78;;;15.51
61977;BMP280;45905;50.570;10.428;2022-09-09T07:39:21;97551.47;;;15.58
61977;BMP280;45905;50.570;10.428;2022-09-09T07:41:52;97548.34;;;15.63
61977;BMP280;45905;50.570;10.428;2022-09-09T07:44:24;97552.09;;;15.73
61977;BMP280;45905;50.570;10.428;2022-09-09T07:47:03;97553.50;;;15.82
61977;BMP280;45905;50.570;10.428;2022-09-09T07:49:35;97548.97;;;15.90
61977;BMP280;45905;50.570;10.428;2022-09-09T07:52:04;97541.75;;;16.00
61977;BMP280;45905;50.570;10.428;2022-09-09T07:54:33;97553.16;;;16.10
61977;BMP280;45905;50.570;10.428;2022-09-09T07:57:03;97559.41;;;16.20
61977;BMP280;45905;50.570;10.428;2022-09-09T07:59:33;97563.34;;;16.29
61977;BMP280;45905;50.570;10.428;2022-09-09T08:02:02;97565.91;;;16.35
61977;BMP280;45905;50.570;10.428;2022-09-09T08:04:31;97559.41;;;16.45
61977;BMP280;45905;50.570;10.428;2022-09-09T08:07:00;97564.50;;;16.52
61977;BMP280;45905;50.570;10.428;2022-09-09T08:09:31;97567.63;;;16.60
61977;BMP280;45905;50.570;10.428;2022-09-09T08:12:06;97566.44;;;16.69
61977;BMP280;45905;50.570;10.428;2022-09-09T08:14:35;97551.47;;;16.79
61977;BMP280;45905;50.570;10.428;2022-09-09T08:17:02;97555.19;;;16.89
61977;BMP280;45905;50.570;10.428;2022-09-09T08:19:32;97559.47;;;17.01
61977;BMP280;45905;50.570;10.428;2022-09-09T08:22:07;97553.34;;;17.15
61977;BMP280;45905;50.570;10.428;2022-09-09T08:24:37;97557.25;;;17.23
61977;BMP280;45905;50.570;10.428;2022-09-09T08:27:04;97557.78;;;17.32
61977;BMP280;45905;50.570;10.428;2022-09-09T08:29:32;97553.03;;;17.41
61977;BMP280;45905;50.570;10.428;2022-09-09T08:31:59;97555.34;;;17.49
61977;BMP280;45905;50.570;10.428;2022-09-09T08:34:28;97545.25;;;17.54
61977;BMP280;45905;50.570;10.428;2022-09-09T08:36:59;97546.41;;;17.58
61977;BMP280;45905;50.570;10.428;2022-09-09T08:39:39;97554.63;;;17.66
61977;BMP280;45905;50.570;10.428;2022-09-09T08:42:44;97557.72;;;17.75
61977;BMP280;45905;50.570;10.428;2022-09-09T08:45:29;97563.19;;;17.84
61977;BMP280;45905;50.570;10.428;2022-09-09T08:48:40;97577.34;;;17.93
61977;BMP280;45905;50.570;10.428;2022-09-09T08:51:10;97573.38;;;17.97
61977;BMP280;45905;50.570;10.428;2022-09-09T08:53:47;97580.59;;;18.06
61977;BMP280;45905;50.570;10.428;2022-09-09T08:56:24;97566.59;;;18.09
61977;BMP280;45905;50.570;10.428;2022-09-09T08:58:56;97579.13;;;18.16
61977;BMP280;45905;50.570;10.428;2022-09-09T09:05:31;97574.19;;;18.39
61977;BMP280;45905;50.570;10.428;2022-09-09T09:08:43;97566.03;;;18.48
61977;BMP280;45905;50.570;10.428;2022-09-09T09:11:11;97569.09;;;18.56
61977;BMP280;45905;50.570;10.428;2022-09-09T09:14:02;97571.63;;;18.63
61977;BMP280;45905;50.570;10.428;2022-09-09T09:16:48;97579.84;;;18.71
61977;BMP280;45905;50.570;10.428;2022-09-09T09:19:17;97579.22;;;18.75
61977;BMP280;45905;50.570;10.428;2022-09-09T09:22:32;97584.56;;;18.74
61977;BMP280;45905;50.570;10.428;2022-09-09T09:25:26;97585.97;;;18.70
61977;BMP280;45905;50.570;10.428;2022-09-09T09:36:08;97588.91;;;18.50
61977;BMP280;45905;50.570;10.428;2022-09-09T09:38:37;97573.72;;;18.48
61977;BMP280;45905;50.570;10.428;2022-09-09T09:44:05;97561.47;;;18.50
61977;BMP280;45905;50.570;10.428;2022-09-09T09:46:32;97560.50;;;18.51
61977;BMP280;45905;50.570;10.428;2022-09-09T09:49:10;97558.50;;;18.53
61977;BMP280;45905;50.570;10.428;2022-09-09T09:51:40;97557.31;;;18.55
61977;BMP280;45905;50.570;10.428;2022-09-09T09:56:47;97554.28;;;18.58
61977;BMP280;45905;50.570;10.428;2022-09-09T10:02:25;97547.19;;;18.60
61977;BMP280;45905;50.570;10.428;2022-09-09T10:05:24;97559.72;;;18.68
61977;BMP280;45905;50.570;10.428;2022-09-09T10:08:10;97552.22;;;18.73
61977;BMP280;45905;50.570;10.428;2022-09-09T10:14:06;97554.91;;;18.78
61977;BMP280;45905;50.570;10.428;2022-09-09T10:17:23;97545.50;;;18.72
61977;BMP280;45905;50.570;10.428;2022-09-09T10:22:44;97537.25;;;18.88
61977;BMP280;45905;50.570;10.428;2022-09-09T10:33:58;97532.06;;;19.23
61977;BMP280;45905;50.570;10.428;2022-09-09T10:36:28;97539.22;;;19.21
61977;BMP280;45905;50.570;10.428;2022-09-09T10:42:07;97579.66;;;18.90
61977;BMP280;45905;50.570;10.428;2022-09-09T10:48:15;97560.63;;;18.56
61977;BMP280;45905;50.570;10.428;2022-09-09T10:51:28;97543.72;;;18.49
61977;BMP280;45905;50.570;10.428;2022-09-09T10:57:44;97547.38;;;18.41
61977;BMP280;45905;50.570;10.428;2022-09-09T11:03:02;97532.47;;;18.50
61977;BMP280;45905;50.570;10.428;2022-09-09T11:05:42;97538.91;;;18.58
61977;BMP280;45905;50.570;10.428;2022-09-09T11:08:24;97541.75;;;18.68
61977;BMP280;45905;50.570;10.428;2022-09-09T11:16:32;97542.97;;;18.90
61977;BMP280;45905;50.570;10.428;2022-09-09T11:19:22;97537.03;;;19.07
61977;BMP280;45905;50.570;10.428;2022-09-09T11:21:53;97548.91;;;19.19
61977;BMP280;45905;50.570;10.428;2022-09-09T11:24:38;97539.06;;;19.33
61977;BMP280;45905;50.570;10.428;2022-09-09T11:27:30;97537.09;;;19.47
61977;BMP280;45905;50.570;10.428;2022-09-09T11:30:25;97531.03;;;19.59
61977;BMP280;45905;50.570;10.428;2022-09-09T11:33:52;97537.09;;;19.75
61977;BMP280;45905;50.570;10.428;2022-09-09T11:42:27;97532.91;;;20.14
61977;BMP280;45905;50.570;10.428;2022-09-09T11:44:54;97528.91;;;20.18
61977;BMP280;45905;50.570;10.428;2022-09-09T11:47:25;97535.16;;;20.22
61977;BMP280;45905;50.570;10.428;2022-09-09T11:52:44;97525.00;;;20.27
61977;BMP280;45905;50.570;10.428;2022-09-09T11:55:28;97531.47;;;20.29
61977;BMP280;45905;50.570;10.428;2022-09-09T12:03:05;97581.41;;;20.00
61977;BMP280;45905;50.570;10.428;2022-09-09T12:05:42;97621.53;;;19.61
61977;BMP280;45905;50.570;10.428;2022-09-09T12:08:23;97629.06;;;18.86
61977;BMP280;45905;50.570;10.428;2022-09-09T12:10:57;97633.13;;;18.69
61977;BMP280;45905;50.570;10.428;2022-09-09T12:13:26;97613.88;;;18.60
61977;BMP280;45905;50.570;10.428;2022-09-09T12:15:57;97602.81;;;18.60
61977;BMP280;45905;50.570;10.428;2022-09-09T12:18:36;97605.19;;;18.61
61977;BMP280;45905;50.570;10.428;2022-09-09T12:27:24;97593.34;;;18.60
61977;BMP280;45905;50.570;10.428;2022-09-09T12:30:15;97589.16;;;18.66
61977;BMP280;45905;50.570;10.428;2022-09-09T12:32:43;97584.38;;;18.69
61977;BMP280;45905;50.570;10.428;2022-09-09T12:35:20;97571.72;;;18.74
61977;BMP280;45905;50.570;10.428;2022-09-09T12:37:58;97580.16;;;18.81
61977;BMP280;45905;50.570;10.428;2022-09-09T12:40:30;97569.63;;;18.89
61977;BMP280;45905;50.570;10.428;2022-09-09T12:42:59;97563.31;;;18.85
61977;BMP280;45905;50.570;10.428;2022-09-09T12:45:33;97558.41;;;18.83
61977;BMP280;45905;50.570;10.428;2022-09-09T12:48:09;97558.56;;;18.88
61977;BMP280;45905;50.570;10.428;2022-09-09T12:50:51;97568.16;;;18.92
61977;BMP280;45905;50.570;10.428;2022-09-09T12:53:26;97546.22;;;18.96
61977;BMP280;45905;50.570;10.428;2022-09-09T12:56:01;97539.22;;;19.03
61977;BMP280;45905;50.570;10.428;2022-09-09T12:58:31;97536.03;;;19.08
61977;BMP280;45905;50.570;10.428;2022-09-09T13:01:02;97541.94;;;19.08
61977;BMP280;45905;50.570;10.428;2022-09-09T13:03:42;97531.69;;;19.08
61977;BMP280;45905;50.570;10.428;2022-09-09T13:06:26;97533.38;;;19.14
61977;BMP280;45905;50.570;10.428;2022-09-09T13:08:58;97525.59;;;19.20
61977;BMP280;45905;50.570;10.428;2022-09-09T13:11:36;97538.78;;;19.24
61977;BMP280;45905;50.570;10.428;2022-09-09T13:14:05;97539.56;;;19.24
61977;BMP280;45905;50.570;10.428;2022-09-09T13:16:35;97531.88;;;19.24
61977;BMP280;45905;50.570;10.428;2022-09-09T13:19:14;97535.66;;;19.22
61977;BMP280;45905;50.570;10.428;2022-09-09T13:21:43;97539.78;;;19.23
61977;BMP280;45905;50.570;10.428;2022-09-09T13:26:59;97535.53;;;19.17
61977;BMP280;45905;50.570;10.428;2022-09-09T13:29:30;97531.13;;;19.17
61977;BMP280;45905;50.570;10.428;2022-09-09T13:32:17;97517.31;;;19.18
61977;BMP280;45905;50.570;10.428;2022-09-09T13:35:01;97511.38;;;19.18
61977;BMP280;45905;50.570;10.428;2022-09-09T13:37:38;97518.09;;;19.19
61977;BMP280;45905;50.570;10.428;2022-09-09T13:40:20;97509.97;;;19.22
61977;BMP280;45905;50.570;10.428;2022-09-09T13:42:55;97503.03;;;19.22
61977;BMP280;45905;50.570;10.428;2022-09-09T13:45:25;97502.84;;;19.24
61977;BMP280;45905;50.570;10.428;2022-09-09T13:47:55;97506.97;;;19.25
61977;BMP280;45905;50.570;10.428;2022-09-09T13:50:26;97499.28;;;19.25
61977;BMP280;45905;50.570;10.428;2022-09-09T13:52:56;97495.97;;;19.18
61977;BMP280;45905;50.570;10.428;2022-09-09T13:55:27;97494.06;;;19.13
61977;BMP280;45905;50.570;10.428;2022-09-09T13:58:01;97487.38;;;19.12
61977;BMP280;45905;50.570;10.428;2022-09-09T14:00:32;97500.78;;;19.14
61977;BMP280;45905;50.570;10.428;2022-09-09T14:03:00;97494.06;;;19.13
61977;BMP280;45905;50.570;10.428;2022-09-09T14:05:32;97496.84;;;19.12
61977;BMP280;45905;50.570;10.428;2022-09-09T14:08:03;97503.88;;;19.05
61977;BMP280;45905;50.570;10.428;2022-09-09T14:10:31;97501.81;;;18.96
61977;BMP280;45905;50.570;10.428;2022-09-09T14:12:58;97501.03;;;18.95
61977;BMP280;45905;50.570;10.428;2022-09-09T14:15:25;97501.22;;;18.94
61977;BMP280;45905;50.570;10.428;2022-09-09T14:17:53;97502.81;;;18.95
61977;BMP280;45905;50.570;10.428;2022-09-09T14:20:21;97506.72;;;18.97
61977;BMP280;45905;50.570;10.428;2022-09-09T14:22:48;97507.31;;;18.99
61977;BMP280;45905;50.570;10.428;2022-09-09T14:25:15;97508.84;;;19.00
61977;BMP280;45905;50.570;10.428;2022-09-09T14:27:42;97495.00;;;19.01
61977;BMP280;45905;50.570;10.428;2022-09-09T14:30:10;97499.44;;;18.94
61977;BMP280;45905;50.570;10.428;2022-09-09T14:32:38;97496.31;;;18.92
61977;BMP280;45905;50.570;10.428;2022-09-09T14:35:05;97484.06;;;18.94
61977;BMP280;45905;50.570;10.428;2022-09-09T14:37:32;97483.63;;;18.97
61977;BMP280;45905;50.570;10.428;2022-09-09T14:39:59;97477.63;;;19.03
61977;BMP280;45905;50.570;10.428;2022-09-09T14:42:26;97475.31;;;19.13
61977;BMP280;45905;50.570;10.428;2022-09-09T14:44:53;97483.28;;;19.23
61977;BMP280;45905;50.570;10.428;2022-09-09T14:47:21;97482.41;;;19.29
61977;BMP280;45905;50.570;10.428;2022-09-09T14:49:48;97483.47;;;19.39
61977;BMP280;45905;50.570;10.428;2022-09-09T14:52:16;97475.00;;;19.49
61977;BMP280;45905;50.570;10.428;2022-09-09T14:54:43;97476.06;;;19.60
61977;BMP280;45905;50.570;10.428;2022-09-09T14:57:10;97479.88;;;19.68
61977;BMP280;45905;50.570;10.428;2022-09-09T14:59:37;97479.56;;;19.76
61977;BMP280;45905;50.570;10.428;2022-09-09T15:02:05;97476.88;;;19.83
61977;BMP280;45905;50.570;10.428;2022-09-09T15:04:32;97478.34;;;19.90
61977;BMP280;45905;50.570;10.428;2022-09-09T15:06:59;97480.03;;;19.96
61977;BMP280;45905;50.570;10.428;2022-09-09T15:09:27;97478.56;;;20.00
61977;BMP280;45905;50.570;10.428;2022-09-09T15:11:54;97471.44;;;20.02
61977;BMP280;45905;50.570;10.428;2022-09-09T15:14:21;97470.53;;;20.07
61977;BMP280;45905;50.570;10.428;2022-09-09T15:16:51;97457.81;;;20.12
61977;BMP280;45905;50.570;10.428;2022-09-09T15:19:19;97452.19;;;20.15
61977;BMP280;45905;50.570;10.428;2022-09-09T15:21:46;97453.09;;;20.09
61977;BMP280;45905;50.570;10.428;2022-09-09T15:24:13;97453.88;;;20.10
61977;BMP280;45905;50.570;10.428;2022-09-09T15:26:40;97445.94;;;20.11
61977;BMP280;45905;50.570;10.428;2022-09-09T15:29:08;97450.09;;;20.12
61977;BMP280;45905;50.570;10.428;2022-09-09T15:31:36;97453.88;;;20.10
61977;BMP280;45905;50.570;10.428;2022-09-09T15:34:06;97455.09;;;20.07
61977;BMP280;45905;50.570;10.428;2022-09-09T15:36:44;97464.28;;;20.04
61977;BMP280;45905;50.570;10.428;2022-09-09T15:39:16;97453.97;;;19.92
61977;BMP280;45905;50.570;10.428;2022-09-09T15:41:45;97452.75;;;19.84
61977;BMP280;45905;50.570;10.428;2022-09-09T15:44:14;97449.28;;;19.78
61977;BMP280;45905;50.570;10.428;2022-09-09T15:46:45;97447.03;;;19.70
61977;BMP280;45905;50.570;10.428;2022-09-09T15:49:21;97452.63;;;19.68
61977;BMP280;45905;50.570;10.428;2022-09-09T15:51:56;97450.38;;;19.60
61977;BMP280;45905;50.570;10.428;2022-09-09T15:54:26;97459.91;;;19.53
61977;BMP280;45905;50.570;10.428;2022-09-09T15:56:56;97465.84;;;19.53
61977;BMP280;45905;50.570;10.428;2022-09-09T15:59:25;97460.47;;;19.55
61977;BMP280;45905;50.570;10.428;2022-09-09T16:01:55;97462.09;;;19.56
61977;BMP280;45905;50.570;10.428;2022-09-09T16:04:24;97465.78;;;19.60
61977;BMP280;45905;50.570;10.428;2022-09-09T16:06:54;97458.41;;;19.63
61977;BMP280;45905;50.570;10.428;2022-09-09T16:09:21;97456.97;;;19.67
61977;BMP280;45905;50.570;10.428;2022-09-09T16:11:49;97469.16;;;19.71
61977;BMP280;45905;50.570;10.428;2022-09-09T16:14:16;97471.19;;;19.69
61977;BMP280;45905;50.570;10.428;2022-09-09T16:16:43;97465.16;;;19.75
61977;BMP280;45905;50.570;10.428;2022-09-09T16:19:12;97468.38;;;19.82
61977;BMP280;45905;50.570;10.428;2022-09-09T16:21:48;97468.97;;;19.84
61977;BMP280;45905;50.570;10.428;2022-09-09T16:24:18;97466.81;;;19.81